createdAt,value
2023-04-27T00:02:33.021Z,7.13
2023-04-27T00:05:20.405Z,6.88
2023-04-27T00:08:08.105Z,7.40
2023-04-27T00:10:56.266Z,11.13
2023-04-27T00:13:43.313Z,7.22
2023-04-27T00:16:30.614Z,7.90
2023-04-27T00:19:17.717Z,4.82
2023-04-27T00:22:04.857Z,7.38
2023-04-27T00:24:52.022Z,10.55
2023-04-27T00:27:39.047Z,6.85
2023-04-27T00:30:26.123Z,8.57
2023-04-27T00:33:13.218Z,8.98
2023-04-27T00:36:04.350Z,5.60
2023-04-27T00:38:51.407Z,6.28
2023-04-27T00:41:42.090Z,7.80
2023-04-27T00:44:29.149Z,5.38
2023-04-27T00:47:17.477Z,9.48
2023-04-27T00:50:08.647Z,5.80
2023-04-27T00:52:56.816Z,8.70
2023-04-27T00:55:43.915Z,8.02
2023-04-27T00:58:30.983Z,8.90
2023-04-27T01:01:20.789Z,7.47
2023-04-27T01:04:08.120Z,6.13
2023-04-27T01:06:55.391Z,10.27
2023-04-27T01:09:42.922Z,8.98
2023-04-27T01:12:29.924Z,7.20
2023-04-27T01:15:16.970Z,8.35
2023-04-27T01:18:04.564Z,7.97
2023-04-27T01:20:51.700Z,6.88
2023-04-27T01:23:38.814Z,6.95
2023-04-27T01:26:26.185Z,7.72
2023-04-27T01:29:13.674Z,9.38
2023-04-27T01:32:00.951Z,12.65
2023-04-27T01:34:47.985Z,9.35
2023-04-27T01:37:35.835Z,11.00
2023-04-27T01:40:22.870Z,13.27
2023-04-27T01:43:09.930Z,9.05
2023-04-27T01:45:57.485Z,8.63
2023-04-27T01:48:44.581Z,10.18
2023-04-27T01:51:33.146Z,8.95
2023-04-27T01:54:20.171Z,9.65
2023-04-27T01:57:07.146Z,9.43
2023-04-27T01:59:54.202Z,6.68
2023-04-27T02:02:41.446Z,9.75
2023-04-27T02:05:28.695Z,9.23
2023-04-27T02:08:15.717Z,7.38
2023-04-27T02:11:03.274Z,7.95
2023-04-27T02:13:50.329Z,8.88
2023-04-27T02:16:37.690Z,8.98
2023-04-27T02:19:25.026Z,9.27
2023-04-27T02:22:12.485Z,6.70
2023-04-27T02:25:00.603Z,11.15
2023-04-27T02:27:47.637Z,8.57
2023-04-27T02:30:35.149Z,9.00
2023-04-27T02:33:22.273Z,9.75
2023-04-27T02:36:09.440Z,8.00
2023-04-27T02:38:56.712Z,8.18
2023-04-27T02:41:43.865Z,5.82
2023-04-27T02:44:31.009Z,9.63
2023-04-27T02:47:18.185Z,6.80
2023-04-27T02:50:05.854Z,8.50
2023-04-27T02:52:52.901Z,6.20
2023-04-27T02:55:51.038Z,8.48
2023-04-27T02:58:38.068Z,8.65
2023-04-27T03:01:25.240Z,9.25
2023-04-27T03:04:14.325Z,8.98
2023-04-27T03:07:01.969Z,7.27
2023-04-27T03:09:49.074Z,6.43
2023-04-27T03:12:36.209Z,7.32
2023-04-27T03:15:23.286Z,7.40
2023-04-27T03:18:10.351Z,7.95
2023-04-27T03:21:08.651Z,7.07
2023-04-27T03:23:55.844Z,9.77
2023-04-27T03:26:42.964Z,9.05
2023-04-27T03:29:30.014Z,6.45
2023-04-27T03:32:17.056Z,7.20
2023-04-27T03:35:04.711Z,6.05
2023-04-27T03:37:51.766Z,7.90
2023-04-27T03:40:38.866Z,7.60
2023-04-27T03:43:26.607Z,6.90
2023-04-27T03:46:13.754Z,7.93
2023-04-27T03:49:00.992Z,6.50
2023-04-27T03:51:48.064Z,8.65
2023-04-27T03:54:35.100Z,9.60
2023-04-27T03:57:22.247Z,5.55
2023-04-27T04:00:12.268Z,5.70
2023-04-27T04:05:47.341Z,5.30
2023-04-27T04:08:34.663Z,7.32
2023-04-27T04:11:22.592Z,5.22
2023-04-27T04:14:09.662Z,7.95
2023-04-27T04:16:56.720Z,8.10
2023-04-27T04:19:43.841Z,6.03
2023-04-27T04:22:30.916Z,8.23
2023-04-27T04:25:18.170Z,7.55
2023-04-27T04:28:05.502Z,8.82
2023-04-27T04:30:52.638Z,14.45
2023-04-27T04:33:39.754Z,9.82
2023-04-27T04:36:31.289Z,11.95
2023-04-27T04:39:22.360Z,12.02
2023-04-27T04:42:09.465Z,12.50
2023-04-27T04:44:57.133Z,14.50
2023-04-27T04:47:44.244Z,11.73
2023-04-27T04:50:31.270Z,9.48
2023-04-27T04:53:18.474Z,7.82
2023-04-27T04:56:12.920Z,5.93
2023-04-27T04:58:59.960Z,7.97
2023-04-27T05:01:46.991Z,7.85
2023-04-27T05:04:34.228Z,7.05
2023-04-27T05:07:24.740Z,8.50
2023-04-27T05:10:12.465Z,9.93
2023-04-27T05:12:59.504Z,6.45
2023-04-27T05:15:46.810Z,7.28
2023-04-27T05:18:36.676Z,10.90
2023-04-27T05:21:23.790Z,8.73
2023-04-27T05:24:11.369Z,5.13
2023-04-27T05:26:59.732Z,5.90
2023-04-27T05:32:37.538Z,11.02
2023-04-27T05:35:24.785Z,6.67
2023-04-27T05:38:12.048Z,9.10
2023-04-27T05:40:59.715Z,5.88
2023-04-27T05:43:46.876Z,4.60
2023-04-27T05:46:35.394Z,7.20
2023-04-27T05:49:24.275Z,8.10
2023-04-27T05:52:11.282Z,8.02
2023-04-27T05:54:58.888Z,6.35
2023-04-27T05:57:47.731Z,6.13
2023-04-27T06:00:39.072Z,10.73
2023-04-27T06:03:26.394Z,10.30
2023-04-27T06:06:13.601Z,10.32
2023-04-27T06:09:00.726Z,7.93
2023-04-27T06:11:47.806Z,9.55
2023-04-27T06:14:36.616Z,10.98
2023-04-27T06:17:23.972Z,8.15
2023-04-27T06:20:12.092Z,9.15
2023-04-27T06:23:00.623Z,5.30
2023-04-27T06:25:47.697Z,5.97
2023-04-27T06:28:34.816Z,6.03
2023-04-27T06:31:22.007Z,7.80
2023-04-27T06:34:09.196Z,8.32
2023-04-27T06:36:56.517Z,7.47
2023-04-27T06:39:44.927Z,10.98
2023-04-27T06:42:32.126Z,8.38
2023-04-27T06:45:19.455Z,5.50
2023-04-27T06:48:06.608Z,9.55
2023-04-27T06:50:53.855Z,7.05
2023-04-27T06:53:41.073Z,8.88
2023-04-27T06:56:28.173Z,6.70
2023-04-27T06:59:15.434Z,5.15
2023-04-27T07:02:02.784Z,6.70
2023-04-27T07:04:50.401Z,6.78
2023-04-27T07:07:37.529Z,8.55
2023-04-27T07:10:24.587Z,6.07
2023-04-27T07:13:12.646Z,9.13
2023-04-27T07:16:01.395Z,6.07
2023-04-27T07:18:48.539Z,8.20
2023-04-27T07:21:35.544Z,7.68
2023-04-27T07:24:22.656Z,11.57
2023-04-27T07:27:10.384Z,9.82
2023-04-27T07:29:58.118Z,7.13
2023-04-27T07:32:45.790Z,6.28
2023-04-27T07:35:33.154Z,8.13
2023-04-27T07:38:20.999Z,13.20
2023-04-27T07:41:09.202Z,6.65
2023-04-27T07:43:58.053Z,10.85
2023-04-27T07:46:47.444Z,7.72
2023-04-27T07:49:35.636Z,10.85
2023-04-27T07:52:22.761Z,10.80
2023-04-27T07:55:10.155Z,8.07
2023-04-27T07:57:57.510Z,8.05
2023-04-27T08:00:44.635Z,8.00
2023-04-27T08:03:32.361Z,11.73
2023-04-27T08:06:20.143Z,7.22
2023-04-27T08:09:08.212Z,9.95
2023-04-27T08:11:55.302Z,8.75
2023-04-27T08:14:42.668Z,6.53
2023-04-27T08:17:29.766Z,5.82
2023-04-27T08:20:16.933Z,9.45
2023-04-27T08:23:03.971Z,6.50
2023-04-27T08:25:51.111Z,6.72
2023-04-27T08:28:38.148Z,7.43
2023-04-27T08:31:26.225Z,6.05
2023-04-27T08:34:13.371Z,9.07
2023-04-27T08:37:00.750Z,5.75
2023-04-27T08:39:49.111Z,7.45
2023-04-27T08:42:36.421Z,8.10
2023-04-27T08:45:25.072Z,8.10
2023-04-27T08:48:12.205Z,7.65
2023-04-27T08:51:00.916Z,6.75
2023-04-27T08:53:52.905Z,8.85
2023-04-27T08:56:40.061Z,7.13
2023-04-27T08:59:27.261Z,7.25
2023-04-27T09:02:21.367Z,7.15
2023-04-27T09:05:16.207Z,10.15
2023-04-27T09:08:08.015Z,6.85
2023-04-27T09:10:55.982Z,5.03
2023-04-27T09:13:47.326Z,10.70
2023-04-27T09:16:34.444Z,5.70
2023-04-27T09:19:27.264Z,8.50
2023-04-27T09:22:15.714Z,7.28
2023-04-27T09:25:02.996Z,6.60
2023-04-27T09:27:50.110Z,7.95
2023-04-27T09:30:37.954Z,10.68
2023-04-27T09:33:29.989Z,4.47
2023-04-27T09:36:17.123Z,7.03
2023-04-27T09:39:05.290Z,9.30
2023-04-27T09:41:52.469Z,5.32
2023-04-27T09:44:39.546Z,5.00
2023-04-27T09:47:28.811Z,5.90
2023-04-27T09:50:16.347Z,7.78
2023-04-27T09:53:06.900Z,6.75
2023-04-27T09:56:06.140Z,9.23
2023-04-27T09:59:30.814Z,4.45
2023-04-27T10:02:25.381Z,5.45
2023-04-27T10:05:22.499Z,9.13
2023-04-27T10:08:11.887Z,6.78
2023-04-27T10:10:58.975Z,9.30
2023-04-27T10:13:54.884Z,5.82
2023-04-27T10:16:56.893Z,6.13
2023-04-27T10:19:57.847Z,6.35
2023-04-27T10:22:52.759Z,8.00
2023-04-27T10:25:41.732Z,7.82
2023-04-27T10:28:39.196Z,6.47
2023-04-27T10:31:30.180Z,6.03
2023-04-27T10:34:20.695Z,6.03
2023-04-27T10:37:12.626Z,4.60
2023-04-27T10:40:08.255Z,3.88
2023-04-27T10:42:55.369Z,4.70
2023-04-27T10:45:43.576Z,4.13
2023-04-27T10:48:30.668Z,5.55
2023-04-27T10:51:18.141Z,6.60
2023-04-27T10:54:05.419Z,4.30
2023-04-27T10:56:52.545Z,8.25
2023-04-27T10:59:55.568Z,11.77
2023-04-27T11:02:42.775Z,6.28
2023-04-27T11:05:33.404Z,4.38
2023-04-27T11:08:21.560Z,5.43
2023-04-27T11:11:16.552Z,7.25
2023-04-27T11:14:03.925Z,5.30
2023-04-27T11:16:51.316Z,4.85
2023-04-27T11:19:48.063Z,8.07
2023-04-27T11:22:45.016Z,5.88
2023-04-27T11:25:32.369Z,5.97
2023-04-27T11:28:20.660Z,4.47
2023-04-27T11:31:08.141Z,6.50
2023-04-27T11:33:55.982Z,6.25
2023-04-27T11:36:43.458Z,7.22
2023-04-27T11:39:38.190Z,5.63
2023-04-27T11:42:28.502Z,6.65
2023-04-27T11:45:15.740Z,5.85
2023-04-27T11:48:03.957Z,3.40
2023-04-27T11:50:53.432Z,4.70
2023-04-27T11:53:40.652Z,4.78
2023-04-27T11:56:34.619Z,6.55
2023-04-27T11:59:26.550Z,5.18
2023-04-27T12:02:13.637Z,7.63
2023-04-27T12:05:01.129Z,7.50
2023-04-27T12:07:48.440Z,6.18
2023-04-27T12:10:35.709Z,6.60
2023-04-27T12:13:22.742Z,7.70
2023-04-27T12:16:09.761Z,7.60
2023-04-27T12:18:56.994Z,6.28
2023-04-27T12:21:44.485Z,6.25
2023-04-27T12:24:32.401Z,6.60
2023-04-27T12:27:19.514Z,6.30
2023-04-27T12:30:07.863Z,6.78
2023-04-27T12:32:55.053Z,4.80
2023-04-27T12:35:42.404Z,5.82
2023-04-27T12:38:29.636Z,4.80
2023-04-27T12:41:16.716Z,4.50
2023-04-27T12:44:04.919Z,6.47
2023-04-27T12:46:52.211Z,4.47
2023-04-27T12:49:40.527Z,5.75
2023-04-27T12:52:27.771Z,8.52
2023-04-27T12:55:28.846Z,6.15
2023-04-27T12:58:19.082Z,6.97
2023-04-27T13:01:12.443Z,5.28
2023-04-27T13:04:01.834Z,7.32
2023-04-27T13:06:50.241Z,6.65
2023-04-27T13:09:37.522Z,5.78
2023-04-27T13:12:24.907Z,9.27
2023-04-27T13:15:12.111Z,5.90
2023-04-27T13:17:59.757Z,4.85
2023-04-27T13:20:48.659Z,10.73
2023-04-27T13:23:35.804Z,4.47
2023-04-27T13:26:24.380Z,5.30
2023-04-27T13:29:11.460Z,5.82
2023-04-27T13:31:58.688Z,7.75
2023-04-27T13:34:45.832Z,4.53
2023-04-27T13:37:32.904Z,9.02
2023-04-27T13:40:22.829Z,14.15
2023-04-27T13:43:09.892Z,13.38
2023-04-27T13:46:00.776Z,4.95
2023-04-27T13:48:48.435Z,6.28
2023-04-27T13:51:36.067Z,7.85
2023-04-27T13:54:23.217Z,3.92
2023-04-27T13:57:10.305Z,3.83
2023-04-27T13:59:57.430Z,6.82
2023-04-27T14:02:44.513Z,4.88
2023-04-27T14:05:32.253Z,10.27
2023-04-27T14:08:19.433Z,7.32
2023-04-27T14:12:07.527Z,7.55
2023-04-27T14:32:28.203Z,5.60
2023-04-27T14:59:46.729Z,41.78
2023-04-27T15:51:49.521Z,13.65
2023-04-27T15:58:43.417Z,6.13
2023-04-27T16:01:27.581Z,5.85
2023-04-27T16:03:57.757Z,40.55
2023-04-27T16:06:42.165Z,8.85
2023-04-27T16:09:11.992Z,6.05
2023-04-27T16:11:44.162Z,3.70
2023-04-27T16:14:22.305Z,3.97
2023-04-27T16:16:57.307Z,5.07
2023-04-27T16:19:26.342Z,5.47
2023-04-27T16:22:11.510Z,19.30
2023-04-27T16:24:47.984Z,4.43
2023-04-27T16:27:25.749Z,6.03
2023-04-27T16:30:01.734Z,3.58
2023-04-27T16:32:38.830Z,6.30
2023-04-27T16:35:11.975Z,6.78
2023-04-27T16:38:03.053Z,7.10
2023-04-27T16:40:38.940Z,5.22
2023-04-27T16:43:09.702Z,5.07
2023-04-27T16:45:37.227Z,4.80
2023-04-27T16:48:17.348Z,6.20
2023-04-27T16:50:58.447Z,4.50
2023-04-27T16:53:28.354Z,3.65
2023-04-27T16:55:59.680Z,5.68
2023-04-27T16:58:49.012Z,4.65
2023-04-27T17:01:24.468Z,6.40
2023-04-27T17:04:14.291Z,10.75
2023-04-27T17:28:26.772Z,9.25
2023-04-27T17:30:53.805Z,7.43
2023-04-27T17:33:20.687Z,8.05
2023-04-27T17:35:47.481Z,7.03
2023-04-27T17:38:15.182Z,7.38
2023-04-27T17:40:42.896Z,8.85
2023-04-27T17:43:11.235Z,7.35
2023-04-27T17:45:38.637Z,7.03
2023-04-27T17:48:07.099Z,6.82
2023-04-27T17:50:36.136Z,3.78
2023-04-27T17:53:03.086Z,5.47
2023-04-27T17:55:29.912Z,4.07
2023-04-27T17:57:57.234Z,6.53
2023-04-27T18:00:24.322Z,3.55
2023-04-27T18:02:51.353Z,5.65
2023-04-27T18:05:18.336Z,3.45
2023-04-27T18:07:46.710Z,7.47
2023-04-27T18:10:13.573Z,5.65
2023-04-27T18:12:40.462Z,7.88
2023-04-27T18:15:09.707Z,5.93
2023-04-27T18:17:36.793Z,7.28
2023-04-27T18:20:09.877Z,7.22
2023-04-27T18:22:40.288Z,7.10
2023-04-27T18:25:09.195Z,9.25
2023-04-27T18:27:38.102Z,7.57
2023-04-27T18:30:07.644Z,5.43
2023-04-27T18:32:35.068Z,5.07
2023-04-27T18:35:02.676Z,4.78
2023-04-27T18:37:29.867Z,6.70
2023-04-27T18:39:56.620Z,4.05
2023-04-27T18:42:24.101Z,4.70
2023-04-27T18:44:55.159Z,5.60
2023-04-27T18:47:22.133Z,6.35
2023-04-27T18:49:52.120Z,6.80
2023-04-27T18:54:45.692Z,3.85
2023-04-27T18:57:13.087Z,6.25
2023-04-27T18:59:40.146Z,7.03
2023-04-27T19:02:09.378Z,4.85
2023-04-27T19:04:36.660Z,6.75
2023-04-27T19:07:03.795Z,7.15
2023-04-27T19:09:30.717Z,3.83
2023-04-27T19:12:02.871Z,4.82
2023-04-27T19:14:31.520Z,6.45
2023-04-27T19:16:58.404Z,4.72
2023-04-27T19:19:27.176Z,7.88
2023-04-27T19:21:54.539Z,5.50
2023-04-27T19:24:21.481Z,8.68
2023-04-27T19:26:48.917Z,9.18
2023-04-27T19:29:17.077Z,7.55
2023-04-27T19:31:44.711Z,5.57
2023-04-27T19:34:11.651Z,3.92
2023-04-27T19:36:38.925Z,6.60
2023-04-27T19:39:06.486Z,5.93
2023-04-27T19:41:33.644Z,4.97
2023-04-27T19:44:01.225Z,4.32
2023-04-27T19:46:28.490Z,5.78
2023-04-27T19:49:00.163Z,3.88
2023-04-27T19:51:27.760Z,7.30
2023-04-27T19:53:54.774Z,9.35
2023-04-27T19:56:21.788Z,7.28
2023-04-27T19:58:48.690Z,5.22
2023-04-27T20:01:15.502Z,5.78
2023-04-27T20:03:42.570Z,5.63
2023-04-27T20:06:10.462Z,5.82
2023-04-27T20:08:37.458Z,6.20
2023-04-27T20:11:04.488Z,7.35
2023-04-27T20:13:31.659Z,4.63
2023-04-27T20:15:59.288Z,6.80
2023-04-27T20:18:26.044Z,8.57
2023-04-27T20:20:52.782Z,10.55
2023-04-27T20:23:19.705Z,5.20
2023-04-27T20:25:46.614Z,6.15
2023-04-27T20:28:13.409Z,6.38
2023-04-27T20:30:40.130Z,5.25
2023-04-27T20:33:07.299Z,7.93
2023-04-27T20:35:36.310Z,5.25
2023-04-27T20:38:03.050Z,8.48
2023-04-27T20:40:29.867Z,6.65
2023-04-27T20:42:56.565Z,8.93
2023-04-27T20:45:23.457Z,8.38
2023-04-27T20:47:50.228Z,11.65
2023-04-27T20:50:17.076Z,10.18
2023-04-27T20:52:44.022Z,8.55
2023-04-27T20:55:11.235Z,6.97
2023-04-27T20:57:38.045Z,6.35
2023-04-27T21:00:05.310Z,7.70
2023-04-27T21:02:32.127Z,6.93
2023-04-27T21:04:58.948Z,7.63
2023-04-27T21:07:25.672Z,11.55
2023-04-27T21:09:52.422Z,10.63
2023-04-27T21:12:19.234Z,11.27
2023-04-27T21:14:46.036Z,7.00
2023-04-27T21:17:15.340Z,7.20
2023-04-27T21:19:42.392Z,7.40
2023-04-27T21:22:09.170Z,7.80
2023-04-27T21:24:35.886Z,5.60
2023-04-27T21:27:02.745Z,8.48
2023-04-27T21:29:29.449Z,7.05
2023-04-27T21:31:56.353Z,8.15
2023-04-27T21:34:23.048Z,7.75
2023-04-27T21:36:49.780Z,7.88
2023-04-27T21:39:16.576Z,7.53
2023-04-27T21:41:43.326Z,12.70
2023-04-27T21:44:10.384Z,7.78
2023-04-27T21:46:37.537Z,8.95
2023-04-27T21:49:04.710Z,9.00
2023-04-27T21:51:34.973Z,7.88
2023-04-27T21:54:01.873Z,8.73
2023-04-27T21:56:28.817Z,13.85
2023-04-27T21:58:55.546Z,9.88
2023-04-27T22:01:27.065Z,9.77
2023-04-27T22:03:54.186Z,9.38
2023-04-27T22:06:21.072Z,9.88
2023-04-27T22:08:47.886Z,10.85
2023-04-27T22:11:14.607Z,10.68
2023-04-27T22:13:41.304Z,10.93
2023-04-27T22:16:08.131Z,13.52
2023-04-27T22:18:34.943Z,10.23
2023-04-27T22:21:01.718Z,17.55
2023-04-27T22:23:29.896Z,30.77
2023-04-27T22:25:56.629Z,36.17
2023-04-27T22:28:23.394Z,51.53
2023-04-27T22:30:50.187Z,47.35
2023-04-27T22:33:17.575Z,42.95
2023-04-27T22:35:44.689Z,73.30
2023-04-27T22:38:11.527Z,68.57
2023-04-27T22:40:38.431Z,33.92
2023-04-27T22:43:05.438Z,25.20
2023-04-27T22:45:32.378Z,16.40
2023-04-27T22:47:59.297Z,13.43
2023-04-27T22:50:26.957Z,14.25
2023-04-27T22:52:53.628Z,10.35
2023-04-27T22:55:20.711Z,10.02
2023-04-27T22:57:47.461Z,9.15
2023-04-27T23:03:33.278Z,10.73
2023-04-27T23:06:00.983Z,9.77
2023-04-27T23:08:28.990Z,10.95
2023-04-27T23:10:56.914Z,8.38
2023-04-27T23:13:29.819Z,8.20
2023-04-27T23:15:56.620Z,9.05
2023-04-27T23:18:23.320Z,6.90
2023-04-27T23:20:56.919Z,7.50
2023-04-27T23:23:23.698Z,8.32
2023-04-27T23:25:50.507Z,6.95
2023-04-27T23:28:17.348Z,8.38
2023-04-27T23:30:44.117Z,7.47
2023-04-27T23:33:10.859Z,9.23
2023-04-27T23:35:37.593Z,9.95
2023-04-27T23:38:04.377Z,7.82
2023-04-27T23:40:31.300Z,11.25
2023-04-27T23:42:58.142Z,7.97
2023-04-27T23:45:24.845Z,9.95
2023-04-27T23:47:52.042Z,7.75
2023-04-27T23:50:18.857Z,8.73
2023-04-27T23:52:45.606Z,6.93
2023-04-27T23:55:12.406Z,8.52
2023-04-27T23:57:39.136Z,7.90
